createdAt,value
2023-11-21T00:02:24.491Z,1.67
2023-11-21T00:04:51.800Z,1.90
2023-11-21T00:07:18.298Z,2.10
2023-11-21T00:09:44.886Z,1.65
2023-11-21T00:12:11.441Z,1.55
2023-11-21T00:14:39.230Z,1.30
2023-11-21T00:17:06.561Z,1.27
2023-11-21T00:19:34.586Z,1.30
2023-11-21T00:22:01.148Z,1.55
2023-11-21T00:24:27.602Z,1.88
2023-11-21T00:26:54.049Z,1.73
2023-11-21T00:29:20.462Z,1.43
2023-11-21T00:31:46.972Z,1.45
2023-11-21T00:34:13.919Z,1.55
2023-11-21T00:36:41.104Z,1.77
2023-11-21T00:39:08.296Z,2.88
2023-11-21T00:41:34.751Z,2.17
2023-11-21T00:44:01.967Z,2.53
2023-11-21T00:46:30.056Z,2.75
2023-11-21T00:48:57.071Z,2.47
2023-11-21T00:51:23.550Z,3.63
2023-11-21T00:53:50.061Z,2.03
2023-11-21T00:56:17.133Z,2.35
2023-11-21T00:58:44.853Z,1.92
2023-11-21T01:01:11.402Z,2.10
2023-11-21T01:03:37.889Z,1.98
2023-11-21T01:06:05.704Z,1.87
2023-11-21T01:08:32.518Z,2.45
2023-11-21T01:10:58.903Z,1.83
2023-11-21T01:13:28.878Z,1.30
2023-11-21T01:15:55.578Z,1.30
2023-11-21T01:18:22.083Z,2.10
2023-11-21T01:20:48.557Z,2.15
2023-11-21T01:23:15.206Z,2.92
2023-11-21T01:25:41.636Z,2.33
2023-11-21T01:28:08.135Z,1.60
2023-11-21T01:30:34.512Z,1.50
2023-11-21T01:33:01.023Z,1.00
2023-11-21T01:35:27.441Z,1.05
2023-11-21T01:37:54.527Z,1.33
2023-11-21T01:40:22.169Z,1.10
2023-11-21T01:42:49.244Z,0.80
2023-11-21T01:45:15.820Z,1.38
2023-11-21T01:47:45.521Z,1.40
2023-11-21T01:50:16.930Z,1.38
2023-11-21T01:52:45.137Z,1.13
2023-11-21T01:55:15.421Z,0.95
2023-11-21T01:57:46.043Z,1.13
2023-11-21T02:00:20.259Z,1.38
2023-11-21T02:02:48.257Z,1.42
2023-11-21T02:05:18.086Z,1.67
2023-11-21T02:07:45.144Z,1.53
2023-11-21T02:10:15.573Z,1.48
2023-11-21T02:12:43.338Z,1.40
2023-11-21T02:15:16.014Z,1.55
2023-11-21T02:17:47.082Z,1.50
2023-11-21T02:20:16.575Z,2.13
2023-11-21T02:22:44.014Z,1.73
2023-11-21T02:25:10.553Z,2.05
2023-11-21T02:27:37.515Z,2.40
2023-11-21T02:30:05.651Z,1.48
2023-11-21T02:32:32.752Z,1.50
2023-11-21T02:35:02.066Z,1.52
2023-11-21T02:37:28.564Z,2.60
2023-11-21T02:39:55.038Z,2.38
2023-11-21T02:42:21.401Z,2.92
2023-11-21T02:44:47.752Z,2.47
2023-11-21T02:47:14.717Z,2.70
2023-11-21T02:49:41.804Z,2.75
2023-11-21T02:52:08.463Z,2.78
2023-11-21T02:54:37.375Z,2.05
2023-11-21T02:57:04.076Z,2.27
2023-11-21T02:59:30.647Z,2.30
2023-11-21T03:01:58.189Z,3.20
2023-11-21T03:04:24.648Z,1.77
2023-11-21T03:06:51.055Z,2.05
2023-11-21T03:09:17.471Z,2.53
2023-11-21T03:11:43.941Z,2.65
2023-11-21T03:14:10.436Z,2.60
2023-11-21T03:16:36.812Z,2.45
2023-11-21T03:19:03.376Z,2.35
2023-11-21T03:21:30.424Z,2.90
2023-11-21T03:23:56.896Z,2.40
2023-11-21T03:26:23.519Z,2.53
2023-11-21T03:28:49.937Z,2.90
2023-11-21T03:31:18.376Z,2.78
2023-11-21T03:33:44.878Z,2.70
2023-11-21T03:36:11.576Z,3.00
2023-11-21T03:38:38.858Z,2.92
2023-11-21T03:41:06.078Z,2.53
2023-11-21T03:43:32.526Z,2.30
2023-11-21T03:45:58.889Z,2.50
2023-11-21T03:48:25.322Z,2.35
2023-11-21T03:50:51.812Z,2.45
2023-11-21T03:53:18.244Z,2.88
2023-11-21T03:55:44.740Z,2.58
2023-11-21T03:58:11.225Z,2.58
2023-11-21T04:00:37.587Z,2.25
2023-11-21T04:03:04.515Z,2.20
2023-11-21T04:05:30.990Z,2.92
2023-11-21T04:07:57.673Z,2.25
2023-11-21T04:10:24.107Z,3.08
2023-11-21T04:12:50.576Z,3.03
2023-11-21T04:15:16.943Z,2.53
2023-11-21T04:17:43.553Z,2.47
2023-11-21T04:20:10.840Z,3.20
2023-11-21T04:22:44.832Z,2.13
2023-11-21T04:25:13.799Z,2.88
2023-11-21T04:27:45.057Z,3.22
2023-11-21T04:30:12.715Z,2.78
2023-11-21T04:32:40.329Z,2.53
2023-11-21T04:35:07.277Z,3.28
2023-11-21T04:37:33.640Z,2.55
2023-11-21T04:40:00.114Z,3.00
2023-11-21T04:42:26.609Z,2.80
2023-11-21T04:44:53.729Z,2.92
2023-11-21T04:47:21.017Z,3.67
2023-11-21T04:49:50.452Z,2.65
2023-11-21T04:52:16.923Z,3.38
2023-11-21T04:54:43.945Z,2.85
2023-11-21T04:57:10.560Z,3.08
2023-11-21T04:59:37.077Z,3.67
2023-11-21T05:02:04.178Z,3.60
2023-11-21T05:04:30.775Z,3.83
2023-11-21T05:06:57.765Z,3.05
2023-11-21T05:09:24.190Z,3.60
2023-11-21T05:11:50.943Z,3.38
2023-11-21T05:14:17.861Z,3.35
2023-11-21T05:16:44.304Z,3.38
2023-11-21T05:19:10.952Z,3.50
2023-11-21T05:21:37.414Z,3.83
2023-11-21T05:24:04.270Z,4.25
2023-11-21T05:26:30.662Z,3.50
2023-11-21T05:28:57.153Z,3.53
2023-11-21T05:31:23.624Z,3.50
2023-11-21T05:33:50.161Z,3.65
2023-11-21T05:36:16.614Z,3.25
2023-11-21T05:38:43.121Z,3.55
2023-11-21T05:41:12.043Z,2.92
2023-11-21T05:43:38.764Z,3.70
2023-11-21T05:46:05.377Z,3.55
2023-11-21T05:48:32.443Z,3.25
2023-11-21T05:50:59.958Z,3.28
2023-11-21T05:53:26.732Z,3.90
2023-11-21T05:55:53.247Z,3.03
2023-11-21T05:58:19.813Z,3.47
2023-11-21T06:00:46.306Z,3.42
2023-11-21T06:03:13.592Z,3.47
2023-11-21T06:05:40.095Z,3.65
2023-11-21T06:08:07.719Z,3.45
2023-11-21T06:10:34.200Z,3.65
2023-11-21T06:13:03.585Z,2.90
2023-11-21T06:15:31.342Z,3.35
2023-11-21T06:17:58.310Z,3.58
2023-11-21T06:20:24.909Z,3.88
2023-11-21T06:22:52.323Z,3.33
2023-11-21T06:25:19.256Z,3.72
2023-11-21T06:27:48.668Z,3.58
2023-11-21T06:30:17.045Z,3.17
2023-11-21T06:32:47.320Z,3.55
2023-11-21T06:35:14.502Z,3.45
2023-11-21T06:37:40.990Z,4.72
2023-11-21T06:40:08.187Z,3.00
2023-11-21T06:42:34.636Z,3.03
2023-11-21T06:45:04.835Z,3.17
2023-11-21T06:47:31.925Z,3.67
2023-11-21T06:50:00.406Z,3.20
2023-11-21T06:52:27.050Z,3.30
2023-11-21T06:54:53.420Z,3.28
2023-11-21T06:57:19.808Z,3.28
2023-11-21T06:59:46.286Z,3.78
2023-11-21T07:02:12.945Z,3.53
2023-11-21T07:04:39.827Z,2.80
2023-11-21T07:07:07.948Z,3.53
2023-11-21T07:09:34.340Z,3.63
2023-11-21T07:12:00.747Z,2.90
2023-11-21T07:14:27.162Z,3.55
2023-11-21T07:16:54.033Z,3.30
2023-11-21T07:19:20.945Z,2.85
2023-11-21T07:21:47.574Z,2.60
2023-11-21T07:24:14.000Z,2.63
2023-11-21T07:26:40.368Z,2.50
2023-11-21T07:29:07.397Z,3.07
2023-11-21T07:31:36.834Z,2.88
2023-11-21T07:34:03.388Z,2.63
2023-11-21T07:36:29.790Z,2.72
2023-11-21T07:38:56.229Z,2.72
2023-11-21T07:41:28.827Z,2.83
2023-11-21T07:43:58.170Z,2.70
2023-11-21T07:46:25.509Z,2.95
2023-11-21T07:48:54.607Z,2.05
2023-11-21T07:51:21.306Z,2.42
2023-11-21T07:53:47.691Z,2.97
2023-11-21T07:56:14.247Z,2.85
2023-11-21T07:58:40.835Z,2.17
2023-11-21T08:01:07.794Z,2.03
2023-11-21T08:03:34.591Z,2.20
2023-11-21T08:06:01.369Z,2.00
2023-11-21T08:08:28.628Z,2.47
2023-11-21T08:10:58.250Z,1.77
2023-11-21T08:13:26.787Z,1.90
2023-11-21T08:15:59.385Z,2.03
2023-11-21T08:18:26.094Z,1.97
2023-11-21T08:20:52.479Z,2.08
2023-11-21T08:23:18.959Z,1.90
2023-11-21T08:25:45.910Z,1.52
2023-11-21T08:28:13.276Z,2.55
2023-11-21T08:30:40.514Z,2.40
2023-11-21T08:33:07.014Z,1.80
2023-11-21T08:35:33.573Z,1.65
2023-11-21T08:38:00.013Z,1.27
2023-11-21T08:40:26.531Z,1.70
2023-11-21T08:42:53.677Z,1.30
2023-11-21T08:45:20.555Z,1.35
2023-11-21T08:47:47.022Z,2.00
2023-11-21T08:50:13.997Z,1.50
2023-11-21T08:52:41.743Z,1.50
2023-11-21T08:55:09.340Z,1.63
2023-11-21T08:57:42.564Z,2.33
2023-11-21T09:00:13.128Z,2.38
2023-11-21T09:02:42.846Z,2.00
2023-11-21T09:05:13.224Z,2.55
2023-11-21T09:07:42.289Z,2.97
2023-11-21T09:10:10.328Z,2.90
2023-11-21T09:12:40.635Z,2.40
2023-11-21T09:15:08.286Z,3.92
2023-11-21T09:17:38.179Z,3.50
2023-11-21T09:20:06.773Z,3.80
2023-11-21T09:22:33.948Z,3.72
2023-11-21T09:25:00.471Z,3.83
2023-11-21T09:27:26.912Z,4.13
2023-11-21T09:29:54.057Z,4.32
2023-11-21T09:32:22.372Z,4.40
2023-11-21T09:34:52.092Z,4.57
2023-11-21T09:37:18.687Z,3.55
2023-11-21T09:39:45.201Z,5.03
2023-11-21T09:42:15.616Z,4.32
2023-11-21T09:44:55.173Z,4.27
2023-11-21T09:47:23.552Z,4.80
2023-11-21T09:49:53.448Z,4.68
2023-11-21T09:52:29.779Z,4.03
2023-11-21T09:54:59.766Z,3.92
2023-11-21T09:57:26.633Z,3.47
2023-11-21T09:59:59.971Z,4.20
2023-11-21T10:02:32.020Z,4.43
2023-11-21T10:05:01.280Z,3.72
2023-11-21T10:07:29.744Z,4.13
2023-11-21T10:09:57.726Z,3.97
2023-11-21T10:12:24.893Z,3.88
2023-11-21T10:14:54.007Z,3.70
2023-11-21T10:17:21.769Z,4.32
2023-11-21T10:19:51.635Z,4.63
2023-11-21T10:22:18.485Z,3.20
2023-11-21T10:24:52.176Z,3.63
2023-11-21T10:27:20.494Z,3.30
2023-11-21T10:29:46.925Z,3.90
2023-11-21T10:32:13.485Z,3.17
2023-11-21T10:34:42.325Z,3.13
2023-11-21T10:37:12.963Z,3.45
2023-11-21T10:39:40.477Z,3.22
2023-11-21T10:42:09.342Z,3.17
2023-11-21T10:44:36.871Z,2.35
2023-11-21T10:47:03.788Z,3.43
2023-11-21T10:49:30.812Z,3.90
2023-11-21T10:51:57.891Z,2.80
2023-11-21T10:54:26.472Z,2.95
2023-11-21T10:57:02.242Z,2.88
2023-11-21T10:59:32.041Z,2.70
2023-11-21T11:02:02.041Z,2.15
2023-11-21T11:04:29.223Z,2.33
2023-11-21T11:06:58.338Z,2.38
2023-11-21T11:09:24.997Z,2.05
2023-11-21T11:11:52.588Z,2.63
2023-11-21T11:14:20.823Z,3.35
2023-11-21T11:16:47.867Z,3.75
2023-11-21T11:19:14.396Z,3.35
2023-11-21T11:21:58.945Z,3.17
2023-11-21T11:24:28.805Z,3.93
2023-11-21T11:27:22.524Z,2.85
2023-11-21T11:30:06.375Z,3.15
2023-11-21T11:32:48.614Z,2.55
2023-11-21T11:35:24.454Z,3.55
2023-11-21T11:37:51.067Z,3.33
2023-11-21T11:40:17.467Z,3.33
2023-11-21T11:42:59.075Z,3.28
2023-11-21T11:45:32.601Z,3.45
2023-11-21T11:48:00.690Z,3.90
2023-11-21T11:50:27.695Z,3.97
2023-11-21T11:52:56.130Z,4.55
2023-11-21T11:55:24.940Z,4.45
2023-11-21T12:00:26.513Z,4.97
2023-11-21T12:02:58.320Z,4.57
2023-11-21T12:05:24.990Z,4.57
2023-11-21T12:07:56.086Z,4.43
2023-11-21T12:10:27.126Z,3.55
2023-11-21T12:12:56.325Z,4.28
2023-11-21T12:15:23.863Z,5.10
2023-11-21T12:17:50.899Z,5.22
2023-11-21T12:20:20.615Z,4.57
2023-11-21T12:22:49.139Z,4.40
2023-11-21T12:25:22.518Z,4.78
2023-11-21T12:27:53.253Z,5.13
2023-11-21T12:30:23.059Z,4.63
2023-11-21T12:32:54.270Z,4.70
2023-11-21T12:35:22.812Z,5.65
2023-11-21T12:37:50.072Z,5.40
2023-11-21T12:40:18.395Z,5.00
2023-11-21T12:42:49.790Z,6.10
2023-11-21T12:45:26.543Z,5.20
2023-11-21T12:48:03.739Z,5.68
2023-11-21T12:50:35.092Z,4.50
2023-11-21T12:53:07.301Z,5.60
2023-11-21T12:55:38.454Z,5.63
2023-11-21T12:58:10.585Z,5.78
2023-11-21T13:00:45.681Z,5.88
2023-11-21T13:03:17.992Z,6.07
2023-11-21T13:05:49.099Z,5.50
2023-11-21T13:08:20.431Z,5.03
2023-11-21T13:10:50.213Z,4.30
2023-11-21T13:13:22.516Z,4.30
2023-11-21T13:15:59.223Z,4.32
2023-11-21T13:18:27.691Z,4.00
2023-11-21T13:20:56.538Z,3.83
2023-11-21T13:23:24.532Z,4.15
2023-11-21T13:25:57.990Z,2.75
2023-11-21T13:28:33.113Z,2.58
2023-11-21T13:31:19.352Z,1.30
2023-11-21T13:33:51.272Z,1.25
2023-11-21T13:36:23.390Z,1.80
2023-11-21T13:38:55.977Z,1.08
2023-11-21T13:41:29.577Z,1.13
2023-11-21T13:44:04.589Z,1.07
2023-11-21T13:46:37.997Z,1.52
2023-11-21T13:49:09.921Z,1.52
2023-11-21T13:51:45.849Z,1.60
2023-11-21T13:54:12.590Z,2.17
2023-11-21T13:56:40.996Z,2.58
2023-11-21T13:59:17.914Z,2.55
2023-11-21T14:02:17.568Z,2.78
2023-11-21T14:04:57.239Z,3.75
2023-11-21T14:07:36.699Z,4.97
2023-11-21T14:10:04.869Z,4.87
2023-11-21T14:12:36.752Z,5.60
2023-11-21T14:15:07.070Z,5.03
2023-11-21T14:17:34.469Z,5.47
2023-11-21T14:20:02.834Z,5.45
2023-11-21T14:22:29.255Z,5.23
2023-11-21T14:24:59.652Z,4.45
2023-11-21T14:27:26.105Z,3.38
2023-11-21T14:29:53.731Z,4.47
2023-11-21T14:32:20.686Z,5.38
2023-11-21T14:34:48.288Z,3.97
2023-11-21T14:37:15.339Z,5.10
2023-11-21T14:39:45.853Z,5.43
2023-11-21T14:42:12.439Z,5.50
2023-11-21T14:44:42.487Z,4.47
2023-11-21T14:47:16.057Z,5.33
2023-11-21T14:49:57.628Z,5.63
2023-11-21T14:52:34.494Z,5.75
2023-11-21T14:55:21.362Z,6.03
2023-11-21T14:57:51.224Z,4.90
2023-11-21T15:00:34.623Z,5.70
2023-11-21T15:03:02.176Z,6.15
2023-11-21T15:05:29.538Z,5.50
2023-11-21T15:07:58.772Z,3.35
2023-11-21T15:10:46.213Z,4.85
2023-11-21T15:13:13.637Z,5.57
2023-11-21T15:15:40.697Z,5.85
2023-11-21T15:18:07.733Z,5.78
2023-11-21T15:20:34.568Z,6.30
2023-11-21T15:23:01.580Z,5.47
2023-11-21T15:25:28.153Z,6.38
2023-11-21T15:27:54.640Z,6.20
2023-11-21T15:30:25.582Z,5.13
2023-11-21T15:32:54.020Z,6.18
2023-11-21T15:35:21.764Z,5.10
2023-11-21T15:37:48.478Z,5.30
2023-11-21T15:40:17.530Z,4.43
2023-11-21T15:42:44.899Z,3.63
2023-11-21T15:45:11.368Z,4.13
2023-11-21T15:47:37.843Z,4.70
2023-11-21T15:50:09.425Z,4.50
2023-11-21T15:52:35.906Z,3.17
2023-11-21T15:55:02.483Z,4.10
2023-11-21T15:57:28.935Z,3.92
2023-11-21T15:59:55.468Z,3.67
2023-11-21T16:02:22.025Z,3.33
2023-11-21T16:04:48.486Z,2.75
2023-11-21T16:07:14.929Z,4.05
2023-11-21T16:09:43.849Z,4.68
2023-11-21T16:12:11.753Z,3.92
2023-11-21T16:14:46.559Z,4.97
2023-11-21T16:17:15.062Z,3.53
2023-11-21T16:19:43.667Z,3.97
2023-11-21T16:22:10.292Z,4.40
2023-11-21T16:24:37.927Z,3.47
2023-11-21T16:27:05.325Z,4.00
2023-11-21T16:29:34.793Z,4.50
2023-11-21T16:32:01.644Z,4.80
2023-11-21T16:34:30.258Z,4.78
2023-11-21T16:36:59.749Z,4.00
2023-11-21T16:39:26.202Z,4.50
2023-11-21T16:41:52.955Z,4.40
2023-11-21T16:44:20.891Z,3.58
2023-11-21T16:46:51.516Z,4.63
2023-11-21T16:49:18.101Z,4.17
2023-11-21T16:51:44.909Z,4.78
2023-11-21T16:54:11.461Z,5.18
2023-11-21T16:56:38.154Z,4.05
2023-11-21T16:59:04.759Z,3.88
2023-11-21T17:01:31.569Z,3.78
2023-11-21T17:04:01.008Z,4.07
2023-11-21T17:06:28.271Z,4.05
2023-11-21T17:08:55.100Z,4.60
2023-11-21T17:11:21.775Z,4.05
2023-11-21T17:13:48.309Z,4.53
2023-11-21T17:16:14.757Z,4.95
2023-11-21T17:18:41.303Z,4.50
2023-11-21T17:21:08.351Z,4.80
2023-11-21T17:23:35.951Z,4.90
2023-11-21T17:26:02.413Z,4.70
2023-11-21T17:28:28.954Z,4.05
2023-11-21T17:30:55.628Z,4.63
2023-11-21T17:33:22.059Z,4.63
2023-11-21T17:35:49.912Z,4.05
2023-11-21T17:38:16.422Z,4.27
2023-11-21T17:40:43.296Z,3.95
2023-11-21T17:43:11.708Z,4.18
2023-11-21T17:45:38.148Z,4.28
2023-11-21T17:48:05.543Z,5.13
2023-11-21T17:50:31.952Z,4.40
2023-11-21T17:52:58.478Z,4.70
2023-11-21T17:55:24.876Z,4.45
2023-11-21T17:57:51.842Z,4.13
2023-11-21T18:00:19.175Z,4.35
2023-11-21T18:02:45.648Z,4.87
2023-11-21T18:05:12.745Z,4.10
2023-11-21T18:07:40.171Z,4.72
2023-11-21T18:10:08.635Z,4.28
2023-11-21T18:12:35.226Z,4.30
2023-11-21T18:15:01.760Z,5.27
2023-11-21T18:17:28.689Z,4.18
2023-11-21T18:19:57.847Z,4.25
2023-11-21T18:22:26.100Z,4.65
2023-11-21T18:24:58.053Z,5.25
2023-11-21T18:27:31.426Z,4.40
2023-11-21T18:30:01.129Z,5.07
2023-11-21T18:32:28.633Z,4.85
2023-11-21T18:34:56.897Z,5.28
2023-11-21T18:37:24.734Z,4.90
2023-11-21T18:39:51.207Z,4.77
2023-11-21T18:42:18.415Z,5.22
2023-11-21T18:44:55.170Z,6.10
2023-11-21T18:47:25.470Z,4.88
2023-11-21T18:49:52.075Z,4.45
2023-11-21T18:52:18.507Z,5.00
2023-11-21T18:54:44.973Z,4.30
2023-11-21T18:57:12.000Z,4.65
2023-11-21T18:59:39.280Z,5.13
2023-11-21T19:02:13.973Z,4.57
2023-11-21T19:04:43.823Z,4.60
2023-11-21T19:07:10.395Z,4.32
2023-11-21T19:09:37.100Z,5.55
2023-11-21T19:12:04.650Z,5.13
2023-11-21T19:14:31.207Z,5.57
2023-11-21T19:16:57.924Z,5.73
2023-11-21T19:19:24.433Z,5.32
2023-11-21T19:21:50.905Z,5.40
2023-11-21T19:24:19.859Z,3.90
2023-11-21T19:26:46.654Z,4.45
2023-11-21T19:29:13.151Z,3.70
2023-11-21T19:31:39.724Z,4.13
2023-11-21T19:34:06.263Z,5.78
2023-11-21T19:36:32.729Z,3.78
2023-11-21T19:38:59.173Z,4.93
2023-11-21T19:41:26.143Z,4.73
2023-11-21T19:43:52.755Z,4.45
2023-11-21T19:46:19.391Z,4.57
2023-11-21T19:48:47.083Z,3.92
2023-11-21T19:51:13.599Z,4.35
2023-11-21T19:53:40.422Z,4.20
2023-11-21T19:56:10.537Z,4.93
2023-11-21T19:58:40.869Z,4.43
2023-11-21T20:01:08.249Z,4.70
2023-11-21T20:03:36.260Z,4.72
2023-11-21T20:06:03.918Z,4.37
2023-11-21T20:08:36.561Z,5.00
2023-11-21T20:11:03.970Z,5.55
2023-11-21T20:13:30.722Z,4.20
2023-11-21T20:15:57.098Z,4.60
2023-11-21T20:20:50.882Z,5.45
2023-11-21T20:23:19.203Z,4.88
2023-11-21T20:25:45.766Z,5.25
2023-11-21T20:28:14.068Z,4.00
2023-11-21T20:30:41.599Z,4.13
2023-11-21T20:33:08.605Z,3.78
2023-11-21T20:35:40.758Z,4.55
2023-11-21T20:38:09.007Z,4.57
2023-11-21T20:40:36.548Z,4.03
2023-11-21T20:43:05.590Z,4.20
2023-11-21T20:45:32.747Z,4.05
2023-11-21T20:48:00.192Z,4.93
2023-11-21T20:50:26.995Z,4.30
2023-11-21T20:52:53.507Z,4.10
2023-11-21T20:55:21.201Z,4.33
2023-11-21T20:57:48.178Z,4.25
2023-11-21T21:00:16.023Z,4.25
2023-11-21T21:02:43.235Z,4.10
2023-11-21T21:05:10.819Z,3.85
2023-11-21T21:07:37.260Z,4.20
2023-11-21T21:10:04.024Z,4.32
2023-11-21T21:12:30.458Z,4.50
2023-11-21T21:14:59.874Z,4.78
2023-11-21T21:17:27.047Z,4.18
2023-11-21T21:19:53.532Z,4.33
2023-11-21T21:22:19.915Z,4.85
2023-11-21T21:24:46.561Z,5.05
2023-11-21T21:27:13.421Z,4.72
2023-11-21T21:29:40.535Z,4.63
2023-11-21T21:32:07.981Z,5.57
2023-11-21T21:34:36.247Z,4.57
2023-11-21T21:37:03.451Z,4.28
2023-11-21T21:39:29.832Z,4.15
2023-11-21T21:41:56.262Z,4.32
2023-11-21T21:44:23.619Z,4.40
2023-11-21T21:46:50.275Z,4.03
2023-11-21T21:49:17.296Z,4.32
2023-11-21T21:51:43.688Z,4.63
2023-11-21T21:54:10.485Z,3.50
2023-11-21T21:56:37.586Z,3.67
2023-11-21T21:59:04.198Z,4.18
2023-11-21T22:01:33.470Z,3.15
2023-11-21T22:04:01.463Z,3.88
2023-11-21T22:06:29.822Z,4.40
2023-11-21T22:08:57.261Z,4.10
2023-11-21T22:11:23.745Z,4.05
2023-11-21T22:13:50.213Z,3.53
2023-11-21T22:16:18.327Z,3.75
2023-11-21T22:18:44.760Z,4.00
2023-11-21T22:21:14.854Z,3.83
2023-11-21T22:23:41.246Z,4.75
2023-11-21T22:26:08.076Z,3.80
2023-11-21T22:28:35.454Z,3.47
2023-11-21T22:31:02.224Z,4.47
2023-11-21T22:33:28.758Z,3.70
2023-11-21T22:35:55.221Z,3.40
2023-11-21T22:38:21.680Z,3.97
2023-11-21T22:40:48.319Z,4.00
2023-11-21T22:43:17.360Z,3.90
2023-11-21T22:45:44.768Z,4.03
2023-11-21T22:48:11.705Z,4.28
2023-11-21T22:50:38.208Z,4.30
2023-11-21T22:53:04.794Z,4.72
2023-11-21T22:55:31.178Z,4.25
2023-11-21T22:57:57.602Z,3.63
2023-11-21T23:00:30.454Z,3.97
2023-11-21T23:02:58.288Z,3.75
2023-11-21T23:05:24.835Z,4.13
2023-11-21T23:07:51.355Z,3.63
2023-11-21T23:10:18.963Z,4.30
2023-11-21T23:12:45.422Z,4.35
2023-11-21T23:15:11.953Z,4.47
2023-11-21T23:17:40.666Z,3.55
2023-11-21T23:20:10.887Z,4.20
2023-11-21T23:22:41.071Z,3.60
2023-11-21T23:25:08.072Z,3.95
2023-11-21T23:27:34.448Z,3.65
2023-11-21T23:30:00.826Z,3.47
2023-11-21T23:32:27.676Z,3.88
2023-11-21T23:34:54.204Z,3.80
2023-11-21T23:37:20.708Z,4.03
2023-11-21T23:39:47.168Z,3.67
2023-11-21T23:42:16.190Z,3.95
2023-11-21T23:44:42.691Z,3.45
2023-11-21T23:47:09.130Z,3.67
2023-11-21T23:49:37.337Z,3.83
2023-11-21T23:52:04.014Z,4.47
2023-11-21T23:54:30.709Z,3.80
2023-11-21T23:56:59.102Z,3.97
2023-11-21T23:59:26.184Z,3.63
